createdAt,value
2023-03-21T05:04:15.270Z,4.00
2023-03-21T05:07:15.104Z,4.00
2023-03-21T05:11:15.062Z,4.00
2023-03-21T05:12:15.099Z,4.00
2023-03-21T05:13:15.040Z,4.00
2023-03-21T05:14:15.032Z,8.00
2023-03-21T05:15:15.025Z,8.00
2023-03-21T05:17:15.004Z,8.00
2023-03-21T05:18:14.989Z,12.00
2023-03-21T05:19:14.982Z,12.00
2023-03-21T05:21:14.955Z,20.00
2023-03-21T05:22:15.034Z,24.00
2023-03-21T05:23:14.934Z,24.00
2023-03-21T05:24:14.924Z,28.00
2023-03-21T05:25:14.919Z,28.00
2023-03-21T05:26:14.904Z,28.00
2023-03-21T05:29:14.871Z,52.00
2023-03-21T05:30:14.866Z,68.00
2023-03-21T05:31:14.878Z,80.00
2023-03-21T05:32:14.840Z,88.00
2023-03-21T05:33:14.837Z,96.00
2023-03-21T05:34:14.824Z,112.00
2023-03-21T05:35:14.820Z,124.00
2023-03-21T05:36:14.846Z,140.00
2023-03-21T05:37:14.792Z,152.00
2023-03-21T05:39:14.777Z,176.00
2023-03-21T05:40:14.765Z,184.00
2023-03-21T05:41:14.748Z,196.00
2023-03-21T05:42:14.737Z,212.00
2023-03-21T05:43:14.725Z,228.00
2023-03-21T05:44:14.715Z,244.00
2023-03-21T05:45:14.701Z,260.00
2023-03-21T05:46:14.838Z,276.00
2023-03-21T05:47:14.684Z,300.00
2023-03-21T05:48:14.723Z,328.00
2023-03-21T05:49:14.673Z,356.00
2023-03-21T05:50:14.663Z,384.00
2023-03-21T05:51:14.642Z,412.00
2023-03-21T05:52:14.650Z,436.00
2023-03-21T05:54:14.630Z,484.00
2023-03-21T05:55:14.609Z,508.00
2023-03-21T05:57:14.605Z,532.00
2023-03-21T05:58:14.573Z,540.00
2023-03-21T05:59:14.558Z,544.00
2023-03-21T06:00:14.560Z,540.00
2023-03-21T06:01:14.543Z,532.00
2023-03-21T06:02:14.569Z,496.00
2023-03-21T06:04:14.613Z,456.00
2023-03-21T06:05:14.497Z,432.00
2023-03-21T06:06:14.491Z,456.00
2023-03-21T06:07:14.476Z,480.00
2023-03-21T06:08:14.482Z,464.00
2023-03-21T06:09:14.463Z,448.00
2023-03-21T06:10:14.464Z,456.00
2023-03-21T06:12:14.424Z,452.00
2023-03-21T06:13:14.412Z,420.00
2023-03-21T06:15:14.393Z,472.00
2023-03-21T06:19:14.356Z,880.00
2023-03-21T06:20:14.341Z,948.00
2023-03-21T06:21:14.332Z,1000.00
2023-03-21T06:22:14.323Z,1052.00
2023-03-21T06:23:14.313Z,1112.00
2023-03-21T06:24:14.347Z,1160.00
2023-03-21T06:25:14.290Z,1192.00
2023-03-21T06:26:14.321Z,1208.00
2023-03-21T06:27:14.266Z,1216.00
2023-03-21T06:28:14.257Z,1212.00
2023-03-21T06:29:14.256Z,1188.00
2023-03-21T06:30:14.252Z,1232.00
2023-03-21T06:31:14.293Z,1352.00
2023-03-21T06:34:14.199Z,1488.00
2023-03-21T06:35:14.185Z,1476.00
2023-03-21T06:36:14.173Z,1464.00
2023-03-21T06:39:14.146Z,1492.00
2023-03-21T06:40:14.137Z,1508.00
2023-03-21T06:41:14.117Z,1532.00
2023-03-21T06:42:14.131Z,1556.00
2023-03-21T06:44:14.088Z,1572.00
2023-03-21T06:45:14.076Z,1596.00
2023-03-21T06:46:14.069Z,1628.00
2023-03-21T06:47:14.052Z,1676.00
2023-03-21T06:48:14.165Z,1792.00
2023-03-21T06:49:14.035Z,1992.00
2023-03-21T06:50:14.024Z,2132.00
2023-03-21T06:51:14.018Z,2204.00
2023-03-21T06:52:14.016Z,2264.00
2023-03-21T06:53:13.992Z,2324.00
2023-03-21T06:54:13.985Z,2344.00
2023-03-21T06:55:13.970Z,2264.00
2023-03-21T06:56:14.046Z,2120.00
2023-03-21T06:57:13.953Z,1948.00
2023-03-21T06:58:13.958Z,1836.00
2023-03-21T06:59:13.930Z,1812.00
2023-03-21T07:00:13.919Z,1748.00
2023-03-21T07:01:13.948Z,1676.00
2023-03-21T07:04:13.881Z,2040.00
2023-03-21T07:05:13.866Z,2240.00
2023-03-21T07:06:13.863Z,2420.00
2023-03-21T07:07:13.846Z,2520.00
2023-03-21T07:08:13.839Z,2500.00
2023-03-21T07:09:13.889Z,2440.00
2023-03-21T07:11:13.830Z,2424.00
2023-03-21T07:12:13.794Z,2352.00
2023-03-21T07:13:13.782Z,2224.00
2023-03-21T07:15:13.761Z,2052.00
2023-03-21T07:16:13.780Z,1936.00
2023-03-21T07:17:13.740Z,1712.00
2023-03-21T07:18:13.740Z,1412.00
2023-03-21T07:19:13.719Z,1372.00
2023-03-21T07:20:13.710Z,1412.00
2023-03-21T07:21:13.700Z,1512.00
2023-03-21T07:22:13.690Z,1616.00
2023-03-21T07:23:13.678Z,1696.00
2023-03-21T07:24:13.777Z,1736.00
2023-03-21T07:25:13.747Z,1732.00
2023-03-21T07:28:13.641Z,1864.00
2023-03-21T07:29:13.614Z,2024.00
2023-03-21T07:30:13.627Z,2120.00
2023-03-21T07:31:13.668Z,2096.00
2023-03-21T07:32:13.585Z,2116.00
2023-03-21T07:34:13.568Z,2264.00
2023-03-21T07:35:13.561Z,2668.00
2023-03-21T07:36:13.656Z,2848.00
2023-03-21T07:37:13.532Z,2808.00
2023-03-21T07:38:13.531Z,2776.00
2023-03-21T07:39:13.510Z,2768.00
2023-03-21T07:40:13.503Z,2816.00
2023-03-21T07:41:13.532Z,3004.00
2023-03-21T07:42:13.512Z,3240.00
2023-03-21T07:44:13.460Z,3704.00
2023-03-21T07:45:13.445Z,3960.00
2023-03-21T07:46:13.533Z,4140.00
2023-03-21T07:47:13.428Z,4204.00
2023-03-21T07:48:13.486Z,4160.00
2023-03-21T07:49:13.402Z,4008.00
2023-03-21T07:50:13.400Z,3864.00
2023-03-21T07:52:13.375Z,3768.00
2023-03-21T07:53:13.361Z,3784.00
2023-03-21T07:54:13.354Z,3788.00
2023-03-21T07:55:13.338Z,3736.00
2023-03-21T07:56:13.332Z,3636.00
2023-03-21T07:57:13.910Z,3512.00
2023-03-21T07:58:13.316Z,3552.00
2023-03-21T08:00:13.287Z,3720.00
2023-03-21T08:01:13.278Z,3892.00
2023-03-21T08:02:13.331Z,4076.00
2023-03-21T08:03:13.371Z,4172.00
2023-03-21T08:04:13.247Z,4200.00
2023-03-21T08:05:13.235Z,4092.00
2023-03-21T08:06:13.229Z,4044.00
2023-03-21T08:07:13.221Z,4016.00
2023-03-21T08:08:13.206Z,3956.00
2023-03-21T08:09:13.199Z,4028.00
2023-03-21T08:10:13.274Z,4172.00
2023-03-21T08:11:13.173Z,4300.00
2023-03-21T08:13:13.150Z,4404.00
2023-03-21T08:15:13.140Z,4148.00
2023-03-21T08:16:13.121Z,4180.00
2023-03-21T08:17:13.108Z,4444.00
2023-03-21T08:18:13.141Z,4664.00
2023-03-21T08:20:13.083Z,4936.00
2023-03-21T08:21:13.081Z,5212.00
2023-03-21T08:22:13.057Z,5628.00
2023-03-21T08:23:13.047Z,6028.00
2023-03-21T08:24:13.033Z,6344.00
2023-03-21T08:25:13.032Z,6564.00
2023-03-21T08:26:13.011Z,6724.00
2023-03-21T08:27:13.005Z,6868.00
2023-03-21T08:28:13.002Z,7032.00
2023-03-21T08:29:12.985Z,7168.00
2023-03-21T08:31:13.052Z,7164.00
2023-03-21T08:32:12.950Z,7116.00
2023-03-21T08:33:12.941Z,7016.00
2023-03-21T08:34:12.948Z,6920.00
2023-03-21T08:36:13.014Z,6860.00
2023-03-21T08:38:12.887Z,6300.00
2023-03-21T08:39:12.877Z,5992.00
2023-03-21T08:40:12.863Z,5900.00
2023-03-21T08:41:12.857Z,5612.00
2023-03-21T08:42:12.844Z,5148.00
2023-03-21T08:43:14.757Z,5004.00
2023-03-21T08:44:12.828Z,5060.00
2023-03-21T08:46:12.862Z,5236.00
2023-03-21T08:47:12.804Z,5844.00
2023-03-21T08:48:12.948Z,6256.00
2023-03-21T08:49:12.853Z,6560.00
2023-03-21T08:51:12.750Z,6696.00
2023-03-21T08:52:12.740Z,6712.00
2023-03-21T08:53:12.728Z,6552.00
2023-03-21T08:54:12.717Z,6400.00
2023-03-21T08:55:12.718Z,6316.00
2023-03-21T08:56:12.692Z,6256.00
2023-03-21T08:57:12.726Z,6204.00
2023-03-21T08:58:12.731Z,6172.00
2023-03-21T08:59:12.713Z,6164.00
2023-03-21T09:00:12.653Z,6136.00
2023-03-21T09:02:12.632Z,6168.00
2023-03-21T09:03:12.624Z,6236.00
2023-03-21T09:04:12.678Z,6284.00
2023-03-21T09:05:12.624Z,6324.00
2023-03-21T09:06:12.608Z,6348.00
2023-03-21T09:07:12.590Z,6308.00
2023-03-21T09:08:12.570Z,6216.00
2023-03-21T09:09:12.677Z,6112.00
2023-03-21T09:10:20.564Z,6004.00
2023-03-21T09:11:13.583Z,5904.00
2023-03-21T09:12:12.528Z,5916.00
2023-03-21T09:13:12.517Z,6064.00
2023-03-21T09:14:12.503Z,6340.00
2023-03-21T09:15:12.500Z,6644.00
2023-03-21T09:16:12.509Z,6872.00
2023-03-21T09:17:12.482Z,7056.00
2023-03-21T09:18:12.462Z,7088.00
2023-03-21T09:19:12.452Z,6920.00
2023-03-21T09:21:12.441Z,6184.00
2023-03-21T09:23:12.414Z,5520.00
2023-03-21T09:24:12.401Z,5556.00
2023-03-21T09:25:12.402Z,5776.00
2023-03-21T09:26:12.378Z,5724.00
2023-03-21T09:27:12.372Z,5688.00
2023-03-21T09:28:12.357Z,5684.00
2023-03-21T09:29:12.347Z,5772.00
2023-03-21T09:30:12.336Z,5952.00
2023-03-21T09:31:12.576Z,6040.00
2023-03-21T09:32:12.312Z,5868.00
2023-03-21T09:33:12.308Z,5388.00
2023-03-21T09:34:12.291Z,5032.00
2023-03-21T09:35:12.281Z,4892.00
2023-03-21T09:36:12.291Z,5124.00
2023-03-21T09:37:12.258Z,5312.00
2023-03-21T09:38:12.558Z,5500.00
2023-03-21T09:39:12.239Z,5232.00
2023-03-21T09:41:12.222Z,5032.00
2023-03-21T09:42:14.243Z,5084.00
2023-03-21T09:43:12.199Z,4964.00
2023-03-21T09:44:12.186Z,4632.00
2023-03-21T09:45:12.176Z,4544.00
2023-03-21T09:46:12.258Z,4636.00
2023-03-21T09:47:12.154Z,4540.00
2023-03-21T09:48:14.281Z,4464.00
2023-03-21T09:49:12.154Z,4428.00
2023-03-21T09:51:12.112Z,3856.00
2023-03-21T09:52:12.098Z,4164.00
2023-03-21T09:53:12.091Z,4952.00
2023-03-21T09:54:12.174Z,5984.00
2023-03-21T09:55:12.077Z,6408.00
2023-03-21T09:56:12.056Z,7012.00
2023-03-21T09:57:12.049Z,7800.00
2023-03-21T09:58:12.037Z,7512.00
2023-03-21T09:59:12.039Z,7400.00
2023-03-21T10:00:12.054Z,8388.00
2023-03-21T10:02:11.993Z,7800.00
2023-03-21T10:03:11.984Z,7480.00
2023-03-21T10:04:12.025Z,6884.00
2023-03-21T10:05:11.963Z,6832.00
2023-03-21T10:06:11.949Z,6868.00
2023-03-21T10:07:11.940Z,6592.00
2023-03-21T10:08:11.930Z,6304.00
2023-03-21T10:09:11.919Z,6508.00
2023-03-21T10:10:11.923Z,7256.00
2023-03-21T10:11:11.897Z,8108.00
2023-03-21T10:12:11.892Z,8916.00
2023-03-21T10:13:11.874Z,9920.00
2023-03-21T10:14:11.893Z,10632.00
2023-03-21T10:15:11.854Z,9860.00
2023-03-21T10:16:11.958Z,9624.00
2023-03-21T10:17:11.834Z,9708.00
2023-03-21T10:18:11.820Z,9688.00
2023-03-21T10:19:11.811Z,9420.00
2023-03-21T10:20:12.235Z,9480.00
2023-03-21T10:21:11.811Z,9968.00
2023-03-21T10:23:11.768Z,10116.00
2023-03-21T10:24:11.761Z,9684.00
2023-03-21T10:25:11.748Z,9836.00
2023-03-21T10:27:11.729Z,9300.00
2023-03-21T10:28:11.713Z,7036.00
2023-03-21T10:29:11.734Z,5428.00
2023-03-21T10:30:11.694Z,4724.00
2023-03-21T10:31:11.717Z,5712.00
2023-03-21T10:34:11.650Z,7216.00
2023-03-21T10:35:11.640Z,7776.00
2023-03-21T10:36:11.758Z,9380.00
2023-03-21T10:37:11.622Z,9032.00
2023-03-21T10:38:11.610Z,8620.00
2023-03-21T10:39:11.597Z,8272.00
2023-03-21T10:40:11.586Z,7364.00
2023-03-21T10:41:11.578Z,6816.00
2023-03-21T10:42:11.582Z,6104.00
2023-03-21T10:43:11.554Z,6548.00
2023-03-21T10:44:11.552Z,7492.00
2023-03-21T10:45:11.533Z,7712.00
2023-03-21T10:46:11.634Z,6540.00
2023-03-21T10:47:11.703Z,6588.00
2023-03-21T10:48:11.712Z,7296.00
2023-03-21T10:49:11.560Z,7032.00
2023-03-21T10:50:11.936Z,6768.00
2023-03-21T10:51:11.470Z,6444.00
2023-03-21T10:52:11.457Z,6268.00
2023-03-21T10:53:11.449Z,6288.00
2023-03-21T10:54:11.440Z,6404.00
2023-03-21T10:55:11.429Z,6320.00
2023-03-21T10:56:11.414Z,6376.00
2023-03-21T10:57:11.422Z,6268.00
2023-03-21T10:58:11.414Z,6104.00
2023-03-21T10:59:11.390Z,5964.00
2023-03-21T11:01:11.418Z,5784.00
2023-03-21T11:02:11.398Z,5724.00
2023-03-21T11:04:11.332Z,5724.00
2023-03-21T11:05:11.322Z,5824.00
2023-03-21T11:06:11.308Z,5976.00
2023-03-21T11:07:11.302Z,6164.00
2023-03-21T11:08:11.286Z,6356.00
2023-03-21T11:09:11.278Z,6548.00
2023-03-21T11:10:14.621Z,6668.00
2023-03-21T11:11:11.257Z,6600.00
2023-03-21T11:12:11.249Z,6456.00
2023-03-21T11:13:11.236Z,6348.00
2023-03-21T11:14:11.254Z,6292.00
2023-03-21T11:15:11.220Z,6364.00
2023-03-21T11:16:11.298Z,6556.00
2023-03-21T11:17:11.275Z,6884.00
2023-03-21T11:18:11.189Z,7256.00
2023-03-21T11:19:11.178Z,7652.00
2023-03-21T11:20:11.165Z,7976.00
2023-03-21T11:21:11.155Z,8280.00
2023-03-21T11:22:11.147Z,8568.00
2023-03-21T11:23:11.134Z,8884.00
2023-03-21T11:25:11.113Z,9792.00
2023-03-21T11:26:11.101Z,10552.00
2023-03-21T11:27:11.108Z,11492.00
2023-03-21T11:29:11.072Z,13532.00
2023-03-21T11:30:11.080Z,14296.00
2023-03-21T11:31:11.225Z,15104.00
2023-03-21T11:32:11.037Z,16032.00
2023-03-21T11:33:11.029Z,16512.00
2023-03-21T11:34:11.026Z,16192.00
2023-03-21T11:35:11.008Z,16096.00
2023-03-21T11:37:10.987Z,14760.00
2023-03-21T11:38:10.987Z,13484.00
2023-03-21T11:39:10.968Z,11976.00
2023-03-21T11:41:10.943Z,9516.00
2023-03-21T11:42:10.931Z,8844.00
2023-03-21T11:43:10.921Z,8500.00
2023-03-21T11:44:10.910Z,8352.00
2023-03-21T11:45:10.900Z,8332.00
2023-03-21T11:46:10.958Z,8380.00
2023-03-21T11:47:10.880Z,8468.00
2023-03-21T11:48:10.927Z,8652.00
2023-03-21T11:49:10.859Z,9024.00
2023-03-21T11:50:10.846Z,9628.00
2023-03-21T11:51:10.836Z,10404.00
2023-03-21T11:52:10.825Z,11344.00
2023-03-21T11:53:10.815Z,12184.00
2023-03-21T11:54:10.801Z,12976.00
2023-03-21T11:55:10.793Z,13308.00
2023-03-21T11:56:10.788Z,13392.00
2023-03-21T11:57:10.777Z,13748.00
2023-03-21T11:58:14.578Z,14372.00
2023-03-21T11:59:10.893Z,15872.00
2023-03-21T12:01:10.729Z,16864.00
2023-03-21T12:02:10.774Z,17952.00
2023-03-21T12:03:10.712Z,18496.00
2023-03-21T12:04:10.721Z,18912.00
2023-03-21T12:05:10.687Z,20864.00
2023-03-21T12:06:10.673Z,25888.00
2023-03-21T12:08:10.653Z,22912.00
2023-03-21T12:09:10.644Z,20224.00
2023-03-21T12:10:10.633Z,21120.00
2023-03-21T12:11:10.634Z,22240.00
2023-03-21T12:13:10.602Z,20448.00
2023-03-21T12:15:10.582Z,16672.00
2023-03-21T12:16:10.675Z,14672.00
2023-03-21T12:17:10.563Z,13652.00
2023-03-21T12:18:10.568Z,13192.00
2023-03-21T12:19:10.540Z,13408.00
2023-03-21T12:20:10.537Z,13440.00
2023-03-21T12:21:10.525Z,12976.00
2023-03-21T12:22:10.508Z,12524.00
2023-03-21T12:24:10.532Z,11964.00
2023-03-21T12:25:10.487Z,12032.00
2023-03-21T12:27:10.459Z,11864.00
2023-03-21T12:28:10.458Z,11652.00
2023-03-21T12:29:10.576Z,11464.00
2023-03-21T12:30:10.424Z,11240.00
2023-03-21T12:31:10.532Z,10992.00
2023-03-21T12:32:10.401Z,10724.00
2023-03-21T12:33:10.395Z,10404.00
2023-03-21T12:35:10.374Z,9916.00
2023-03-21T12:36:10.432Z,9684.00
2023-03-21T12:37:10.352Z,9440.00
2023-03-21T12:38:10.343Z,9200.00
2023-03-21T12:39:10.329Z,8948.00
2023-03-21T12:40:10.321Z,8748.00
2023-03-21T12:41:10.326Z,8608.00
2023-03-21T12:42:10.303Z,8520.00
2023-03-21T12:43:10.443Z,8520.00
2023-03-21T12:44:10.288Z,8596.00
2023-03-21T12:45:15.416Z,8676.00
2023-03-21T12:46:10.255Z,8672.00
2023-03-21T12:47:10.288Z,8580.00
2023-03-21T12:49:10.296Z,8188.00
2023-03-21T12:50:10.341Z,7888.00
2023-03-21T12:51:10.207Z,7532.00
2023-03-21T12:52:10.194Z,7140.00
2023-03-21T12:53:10.183Z,6756.00
2023-03-21T12:54:10.185Z,6436.00
2023-03-21T12:55:10.159Z,6372.00
2023-03-21T12:56:10.151Z,6688.00
2023-03-21T12:58:10.138Z,7608.00
2023-03-21T12:59:10.115Z,8132.00
2023-03-21T13:00:10.128Z,8144.00
2023-03-21T13:01:10.218Z,8436.00
2023-03-21T13:02:10.083Z,8616.00
2023-03-21T13:03:10.074Z,8788.00
2023-03-21T13:04:10.155Z,8992.00
2023-03-21T13:05:10.059Z,9116.00
2023-03-21T13:06:10.159Z,9176.00
2023-03-21T13:07:10.029Z,9184.00
2023-03-21T13:08:10.052Z,9156.00
2023-03-21T13:09:10.010Z,9112.00
2023-03-21T13:10:09.999Z,9180.00
2023-03-21T13:11:09.989Z,9384.00
2023-03-21T13:12:09.977Z,9580.00
2023-03-21T13:13:10.046Z,9740.00
2023-03-21T13:15:18.305Z,10104.00
2023-03-21T13:16:09.993Z,10412.00
2023-03-21T13:17:09.925Z,10656.00
2023-03-21T13:18:09.916Z,10940.00
2023-03-21T13:19:09.906Z,11096.00
2023-03-21T13:20:09.891Z,11148.00
2023-03-21T13:21:09.882Z,11192.00
2023-03-21T13:26:50.168Z,9628.00
2023-03-21T13:27:50.042Z,9296.00
2023-03-21T13:28:50.033Z,9048.00
2023-03-21T13:29:50.153Z,8868.00
2023-03-21T13:31:52.468Z,8672.00
2023-03-21T13:32:49.983Z,8700.00
2023-03-21T13:33:49.986Z,8752.00
2023-03-21T13:34:49.961Z,8780.00
2023-03-21T13:35:49.961Z,8856.00
2023-03-21T13:36:49.941Z,8912.00
2023-03-21T13:37:49.932Z,8900.00
2023-03-21T13:38:49.922Z,8944.00
2023-03-21T13:39:49.914Z,9128.00
2023-03-21T13:40:49.901Z,9416.00
2023-03-21T13:42:50.014Z,9992.00
2023-03-21T13:43:49.874Z,10184.00
2023-03-21T13:44:50.538Z,10292.00
2023-03-21T13:45:49.927Z,10284.00
2023-03-21T13:46:54.206Z,10224.00
2023-03-21T13:47:49.863Z,10236.00
2023-03-21T13:49:50.841Z,10380.00
2023-03-21T13:50:49.804Z,10904.00
2023-03-21T13:51:49.790Z,11224.00
2023-03-21T13:52:49.783Z,11896.00
2023-03-21T13:53:49.771Z,12644.00
2023-03-21T13:54:49.964Z,13416.00
2023-03-21T13:55:49.753Z,14328.00
2023-03-21T13:56:49.755Z,14804.00
2023-03-21T13:57:49.732Z,17568.00
2023-03-21T13:58:49.837Z,18400.00
2023-03-21T14:01:49.698Z,16288.00
2023-03-21T14:02:49.686Z,15712.00
2023-03-21T14:03:49.671Z,14844.00
2023-03-21T14:05:04.137Z,14240.00
2023-03-21T14:05:49.673Z,13564.00
2023-03-21T14:06:51.133Z,12996.00
2023-03-21T14:07:50.078Z,12456.00
2023-03-21T14:08:49.624Z,11692.00
2023-03-21T14:09:49.608Z,11436.00
2023-03-21T14:10:49.607Z,11128.00
2023-03-21T14:11:49.587Z,10916.00
2023-03-21T14:12:49.612Z,10716.00
2023-03-21T14:13:51.706Z,10568.00
2023-03-21T14:15:55.336Z,10352.00
2023-03-21T14:17:49.522Z,10160.00
2023-03-21T14:18:54.664Z,10064.00
2023-03-21T14:19:50.532Z,10000.00
2023-03-21T14:20:49.492Z,10096.00
2023-03-21T14:21:49.487Z,10192.00
2023-03-21T14:22:49.472Z,10132.00
2023-03-21T14:23:49.462Z,10376.00
2023-03-21T14:24:49.455Z,10584.00
2023-03-21T14:25:49.695Z,10812.00
2023-03-21T14:26:49.434Z,11096.00
2023-03-21T14:27:49.429Z,11236.00
2023-03-21T14:30:49.654Z,14972.00
2023-03-21T14:31:49.382Z,17312.00
2023-03-21T14:32:49.378Z,21216.00
2023-03-21T14:33:49.360Z,22752.00
2023-03-21T14:35:49.370Z,23424.00
2023-03-21T14:36:57.592Z,23392.00
2023-03-21T14:37:50.359Z,22016.00
2023-03-21T14:38:49.312Z,15520.00
2023-03-21T14:39:49.301Z,18368.00
2023-03-21T14:40:49.487Z,16736.00
2023-03-21T14:41:49.280Z,16896.00
2023-03-21T14:42:49.263Z,15648.00
2023-03-21T14:43:49.256Z,15776.00
2023-03-21T14:44:56.350Z,16608.00
2023-03-21T14:45:50.309Z,13988.00
2023-03-21T14:46:49.339Z,12384.00
2023-03-21T14:47:49.267Z,11488.00
2023-03-21T14:48:49.200Z,11472.00
2023-03-21T14:49:49.194Z,13176.00
2023-03-21T14:50:49.186Z,11552.00
2023-03-21T14:51:49.176Z,11028.00
2023-03-21T14:52:49.161Z,11940.00
2023-03-21T14:53:49.147Z,11372.00
2023-03-21T14:55:49.130Z,10868.00
2023-03-21T14:56:49.117Z,10640.00
2023-03-21T14:57:49.105Z,10268.00
2023-03-21T14:58:49.093Z,9924.00
2023-03-21T14:59:49.085Z,10044.00
2023-03-21T15:00:49.070Z,9780.00
2023-03-21T15:01:49.098Z,9616.00
2023-03-21T15:02:49.220Z,10016.00
2023-03-21T15:03:49.043Z,10100.00
2023-03-21T15:04:49.053Z,10408.00
2023-03-21T15:05:49.023Z,10964.00
2023-03-21T15:06:49.008Z,9972.00
2023-03-21T15:07:49.004Z,9912.00
2023-03-21T15:08:48.989Z,8988.00
2023-03-21T15:09:48.988Z,8836.00
2023-03-21T15:10:57.691Z,9000.00
2023-03-21T15:11:49.985Z,9580.00
2023-03-21T15:12:48.973Z,9676.00
2023-03-21T15:13:48.937Z,9828.00
2023-03-21T15:14:48.925Z,9856.00
2023-03-21T15:15:48.972Z,9984.00
2023-03-21T15:16:48.906Z,10032.00
2023-03-21T15:17:48.895Z,10240.00
2023-03-21T15:18:49.003Z,10408.00
2023-03-21T15:19:48.877Z,11052.00
2023-03-21T15:21:48.857Z,15040.00
2023-03-21T15:22:48.849Z,15808.00
2023-03-21T15:23:48.835Z,24384.00
2023-03-21T15:24:48.831Z,25216.00
2023-03-21T15:25:48.816Z,25312.00
2023-03-21T15:26:48.810Z,25600.00
2023-03-21T15:27:48.793Z,25120.00
2023-03-21T15:28:48.781Z,27424.00
2023-03-21T15:29:48.774Z,26112.00
2023-03-21T15:30:48.766Z,37664.00
2023-03-21T15:31:48.842Z,38752.00
2023-03-21T15:32:48.764Z,27904.00
2023-03-21T15:33:48.741Z,31936.00
2023-03-21T15:34:48.832Z,35328.00
2023-03-21T15:35:48.716Z,32000.00
2023-03-21T15:36:48.697Z,29664.00
2023-03-21T15:38:48.679Z,30464.00
2023-03-21T15:39:48.669Z,29856.00
2023-03-21T15:40:48.653Z,27552.00
2023-03-21T15:41:48.651Z,25920.00
2023-03-21T15:42:48.639Z,26272.00
2023-03-21T15:44:48.612Z,29728.00
2023-03-21T15:45:48.604Z,10116.00
2023-03-21T15:46:48.687Z,9116.00
2023-03-21T15:47:48.623Z,8868.00
2023-03-21T15:48:48.573Z,9404.00
2023-03-21T15:49:48.596Z,9568.00
2023-03-21T15:50:48.663Z,9956.00
2023-03-21T15:51:48.539Z,11572.00
2023-03-21T15:52:48.527Z,10328.00
2023-03-21T15:54:48.515Z,15392.00
2023-03-21T15:55:48.505Z,21120.00
2023-03-21T15:56:48.488Z,19488.00
2023-03-21T15:57:48.476Z,14272.00
2023-03-21T15:58:48.463Z,22240.00
2023-03-21T15:59:48.469Z,23168.00
2023-03-21T16:00:48.489Z,22496.00
2023-03-21T16:01:48.562Z,21728.00
2023-03-21T16:02:48.454Z,21248.00
2023-03-21T16:03:48.411Z,19904.00
2023-03-21T16:04:48.401Z,17248.00
2023-03-21T16:05:48.392Z,14496.00
2023-03-21T16:07:48.372Z,7260.00
2023-03-21T16:08:48.365Z,6824.00
2023-03-21T16:09:48.349Z,7592.00
2023-03-21T16:10:48.340Z,6440.00
2023-03-21T16:11:48.334Z,8504.00
2023-03-21T16:12:48.319Z,8372.00
2023-03-21T16:13:48.313Z,8360.00
2023-03-21T16:14:48.305Z,9276.00
2023-03-21T16:15:48.309Z,11048.00
2023-03-21T16:16:48.328Z,6820.00
2023-03-21T16:17:48.269Z,5724.00
2023-03-21T16:18:48.282Z,5088.00
2023-03-21T16:19:48.244Z,4548.00
2023-03-21T16:20:48.233Z,4392.00
2023-03-21T16:21:48.225Z,4308.00
2023-03-21T16:22:48.233Z,4272.00
2023-03-21T16:23:48.209Z,4012.00
2023-03-21T16:24:48.190Z,3748.00
2023-03-21T16:26:48.169Z,3328.00
2023-03-21T16:27:48.159Z,3264.00
2023-03-21T16:28:48.151Z,3464.00
2023-03-21T16:29:48.137Z,3656.00
2023-03-21T16:30:48.127Z,3868.00
2023-03-21T16:31:48.310Z,4028.00
2023-03-21T16:32:48.106Z,5300.00
2023-03-21T16:33:48.098Z,5308.00
2023-03-21T16:34:48.086Z,5568.00
2023-03-21T16:35:48.108Z,5156.00
2023-03-21T16:36:48.068Z,5040.00
2023-03-21T16:37:48.105Z,4752.00
2023-03-21T16:38:48.266Z,4116.00
2023-03-21T16:39:48.036Z,3560.00
2023-03-21T16:40:48.028Z,3204.00
2023-03-21T16:41:48.022Z,3072.00
2023-03-21T16:42:48.007Z,3112.00
2023-03-21T16:43:48.006Z,3316.00
2023-03-21T16:45:48.049Z,3392.00
2023-03-21T16:46:47.976Z,3368.00
2023-03-21T16:47:49.536Z,3304.00
2023-03-21T16:48:47.947Z,3068.00
2023-03-21T16:49:47.936Z,2644.00
2023-03-21T16:50:47.934Z,2240.00
2023-03-21T16:51:47.910Z,1956.00
2023-03-21T16:53:47.896Z,1540.00
2023-03-21T16:54:47.906Z,1436.00
2023-03-21T16:55:47.874Z,1340.00
2023-03-21T16:56:47.861Z,1204.00
2023-03-21T16:57:47.848Z,1116.00
2023-03-21T16:58:47.856Z,1048.00
2023-03-21T16:59:47.829Z,1004.00
2023-03-21T17:00:47.817Z,1020.00
2023-03-21T17:01:47.893Z,1044.00
2023-03-21T17:02:47.892Z,972.00
2023-03-21T17:03:47.786Z,856.00
2023-03-21T17:04:47.777Z,748.00
2023-03-21T17:05:47.765Z,648.00
2023-03-21T17:06:47.756Z,596.00
2023-03-21T17:07:47.743Z,548.00
2023-03-21T17:08:47.736Z,504.00
2023-03-21T17:09:47.723Z,472.00
2023-03-21T17:10:47.733Z,436.00
2023-03-21T17:11:47.703Z,396.00
2023-03-21T17:12:47.694Z,388.00
2023-03-21T17:13:47.681Z,384.00
2023-03-21T17:14:47.672Z,384.00
2023-03-21T17:15:47.667Z,380.00
2023-03-21T17:16:47.752Z,380.00
2023-03-21T17:17:47.643Z,372.00
2023-03-21T17:18:47.637Z,348.00
2023-03-21T17:19:47.619Z,328.00
2023-03-21T17:20:47.620Z,312.00
2023-03-21T17:22:47.589Z,312.00
2023-03-21T17:23:47.577Z,320.00
2023-03-21T17:25:47.557Z,280.00
2023-03-21T17:26:47.576Z,260.00
2023-03-21T17:28:47.527Z,220.00
2023-03-21T17:29:47.597Z,200.00
2023-03-21T17:30:47.550Z,200.00
2023-03-21T17:31:47.538Z,196.00
2023-03-21T17:33:47.472Z,168.00
2023-03-21T17:34:47.462Z,152.00
2023-03-21T17:35:47.566Z,140.00
2023-03-21T17:36:47.464Z,132.00
2023-03-21T17:38:47.433Z,112.00
2023-03-21T17:39:47.407Z,100.00
2023-03-21T17:40:48.993Z,96.00
2023-03-21T17:41:47.404Z,100.00
2023-03-21T17:42:47.399Z,108.00
2023-03-21T17:43:47.370Z,112.00
2023-03-21T17:44:47.355Z,116.00
2023-03-21T17:45:47.343Z,116.00
2023-03-21T17:46:49.523Z,104.00
2023-03-21T17:47:47.377Z,88.00
2023-03-21T17:48:47.314Z,72.00
2023-03-21T17:49:47.301Z,60.00
2023-03-21T17:50:47.296Z,48.00
2023-03-21T17:51:47.276Z,40.00
2023-03-21T17:52:49.549Z,32.00
2023-03-21T17:53:47.265Z,28.00
2023-03-21T17:54:47.269Z,28.00
2023-03-21T17:55:47.241Z,28.00
2023-03-21T17:56:47.237Z,24.00
2023-03-21T17:57:47.221Z,24.00
2023-03-21T17:58:47.246Z,20.00
2023-03-21T17:59:47.199Z,16.00
2023-03-21T18:00:47.198Z,16.00
2023-03-21T18:01:47.261Z,12.00
2023-03-21T18:02:47.177Z,8.00
2023-03-21T18:03:47.157Z,4.00
2023-03-21T18:05:47.153Z,4.00
2023-03-21T18:08:10.267Z,4.00
2023-03-21T18:08:48.153Z,4.00
